• Join FlightAware (Why Join?)
  • Login
  • US Flag 
03:52AM EST


 

Airport Tracker/Info


-or-


 

Live Flight TrackerFlight Track Log ✈ VH-OGL ✈ 14-May-2012 ✈ YSSY / SYD - YPPH / PER

Flight Track Log - Related Links

Times and Time Zones

All times are in EDT time to prevent confusion due to time zone crossing. See the VH-OGL flight status page for this flight to view local times or setup timezone preferences in your user account.

Time Position Orientation Groundspeed Altitude Reporting Facility
EDT Latitude Longitude Course Direction KTS MPH feet Rate Location/Type
05:46AM -33.9734 151.1807 183° South 165 190 1,500  Level Aus ATC (RADAR)
05:47AM -34.0028 151.1787 173° South 185 213 2,500 2,040 Climbing Aus ATC (RADAR)
05:47AM -34.0618 151.1877 165° South 247 284 4,600 2,880 Climbing Aus ATC (RADAR)
05:48AM -34.1172 151.2061 191° South 254 292 7,600 3,480 Climbing Aus ATC (RADAR)
05:49AM -34.1572 151.1969 265° West 255 293 9,600 2,520 Climbing Aus ATC (RADAR)
05:50AM -34.1629 151.1131 329° Northwest 305 351 11,400 2,040 Climbing Aus ATC (RADAR)
05:51AM -34.0484 151.0302 318° Northwest 396 456 14,100 2,580 Climbing Aus ATC (RADAR)
05:52AM -33.9720 150.9463 296° West 396 456 17,000 3,000 Climbing Aus ATC (RADAR)
05:53AM -33.9423 150.8731 295° West 402 463 18,600 2,760 Climbing Aus ATC (RADAR)
05:53AM -33.8962 150.7552 296° West 410 472 21,200 2,760 Climbing Aus ATC (RADAR)
05:54AM -33.8619 150.6693 296° West 414 476 23,000 2,460 Climbing Aus ATC (RADAR)
05:55AM -33.8127 150.5497 296° West 424 488 25,100 2,340 Climbing Aus ATC (RADAR)
05:56AM -33.7489 150.3948 295° West 430 495 27,900 2,400 Climbing Aus ATC (RADAR)
05:57AM -33.7191 150.3177 270° West 425 489 29,300 1,740 Climbing Aus ATC (RADAR)
05:58AM -33.7192 150.1976 264° West 425 489 30,400 600 Climbing Aus ATC (RADAR)
05:58AM -33.7301 150.0755 264° West 431 496 30,300 -120 Descending Aus ATC (RADAR)
05:59AM -33.7378 149.9909 264° West 427 491 30,300  Level Aus ATC (RADAR)
06:00AM -33.7442 149.9191 264° West 424 488 30,300  Level Aus ATC (RADAR)
06:00AM -33.7557 149.7875 264° West 423 487 30,300  Level Aus ATC (RADAR)
06:01AM -33.7668 149.6568 264° West 419 482 30,300  Level Aus ATC (RADAR)
06:02AM -33.7746 149.5614 264° West 421 484 30,300  Level Aus ATC (RADAR)
06:03AM -33.7808 149.4905 264° West 420 483 30,300  Level Aus ATC (RADAR)
06:03AM -33.7877 149.4070 264° West 420 483 30,300  Level Aus ATC (RADAR)
06:04AM -33.7956 149.3119 265° West 421 484 30,300  Level Aus ATC (RADAR)
06:04AM -33.8022 149.2284 264° West 422 486 30,300  Level Aus ATC (RADAR)
06:05AM -33.8133 149.0971 264° West 422 486 30,300  Level Aus ATC (RADAR)
06:06AM -33.8270 148.9295 265° West 425 489 30,300  Level Aus ATC (RADAR)
06:07AM -33.8382 148.7853 265° West 426 490 30,300  Level Aus ATC (RADAR)
06:08AM -33.8448 148.7013 261° West 424 488 30,300  Level Aus ATC (RADAR)
06:09AM -33.8613 148.5706 259° West 424 488 30,300  Level Aus ATC (RADAR)
06:10AM -33.8751 148.4883 259° West 424 488 30,300  Level Aus ATC (RADAR)
06:10AM -33.8927 148.3822 259° West 423 487 30,300  Level Aus ATC (RADAR)
06:11AM -33.9062 148.3000 259° West 423 487 30,300  Level Aus ATC (RADAR)
06:12AM -33.9422 148.0758 259° West 424 488 30,300  Level Aus ATC (RADAR)
06:13AM -33.9629 147.9452 259° West 426 490 30,300  Level Aus ATC (RADAR)
06:14AM -33.9763 147.8626 259° West 425 489 30,300  Level Aus ATC (RADAR)
06:15AM -33.9894 147.7794 259° West 426 490 30,300  Level Aus ATC (RADAR)
06:15AM -34.0007 147.7084 259° West 425 489 30,300  Level Aus ATC (RADAR)
06:16AM -34.0162 147.6141 259° West 426 490 30,300  Level Aus ATC (RADAR)
06:17AM -34.0406 147.4605 259° West 425 489 30,300  Level Aus ATC (RADAR)
06:17AM -34.0521 147.3901 260° West 421 484 30,300  Level Aus ATC (RADAR)
06:18AM -34.0700 147.2720 259° West 424 488 30,300  Level Aus ATC (RADAR)
06:19AM -34.0848 147.1781 259° West 422 486 30,300  Level Aus ATC (RADAR)
06:20AM -34.1084 147.0249 260° West 422 486 30,300  Level Aus ATC (RADAR)
06:21AM -34.1226 146.9305 260° West 423 487 30,300  Level Aus ATC (RADAR)
06:21AM -34.1371 146.8357 259° West 424 488 30,300  Level Aus ATC (RADAR)
06:22AM -34.1617 146.6814 260° West 430 495 30,300  Level Aus ATC (RADAR)
06:23AM -34.1819 146.5380 260° West 431 496 30,300  Level Aus ATC (RADAR)
06:24AM -34.1998 146.4174 261° West 434 499 30,300  Level Aus ATC (RADAR)
06:25AM -34.2111 146.3326 260° West 433 498 30,300  Level Aus ATC (RADAR)
06:25AM -34.2285 146.2110 260° West 435 501 30,300  Level Aus ATC (RADAR)
06:26AM -34.2487 146.0777 261° West 434 499 30,300  Level Aus ATC (RADAR)
06:27AM -34.2662 145.9432 262° West 438 504 30,300  Level Aus ATC (RADAR)
06:28AM -34.2824 145.8081 261° West 440 506 30,300  Level Aus ATC (RADAR)
06:29AM -34.2976 145.6850 262° West 441 507 30,300  Level Aus ATC (RADAR)
06:30AM -34.3142 145.5492 262° West 442 509 30,300  Level Aus ATC (RADAR)
06:31AM -34.3260 145.4500 262° West 445 512 30,300  Level Aus ATC (RADAR)
06:31AM -34.3377 145.3506 262° West 446 513 30,300  Level Aus ATC (RADAR)
06:33AM -34.3587 145.1644 262° West 446 513 30,300  Level Aus ATC (RADAR)
06:33AM -34.3716 145.0522 262° West 447 514 30,300  Level Aus ATC (RADAR)
06:34AM -34.3914 144.8782 262° West 446 513 30,300  Level Aus ATC (RADAR)
06:35AM -34.4066 144.7406 262° West 446 513 30,300  Level Aus ATC (RADAR)
06:36AM -34.4195 144.6294 262° West 441 507 30,300  Level Aus ATC (RADAR)
06:37AM -34.4279 144.5522 262° West 453 521 30,300  Level Aus ATC (RADAR)
06:38AM -34.4471 144.3791 262° West 448 516 30,300  Level Aus ATC (RADAR)
06:39AM -34.4621 144.2411 262° West 448 516 30,300  Level Aus ATC (RADAR)
06:39AM -34.4745 144.1284 263° West 447 514 30,300  Level Aus ATC (RADAR)
06:40AM -34.4852 144.0286 263° West 444 511 30,300 60 Level Aus ATC (RADAR)
06:41AM -34.4984 143.9044 263° West 441 507 30,400  Climbing Aus ATC (RADAR)
06:42AM -34.5132 143.7649 263° West 451 519 30,400  Level Aus ATC (RADAR)
06:43AM -34.5354 143.5521 263° West 425 489 30,400  Level Aus ATC (RADAR)
06:44AM -34.5507 143.4009 263° West 445 512 30,400  Level Aus ATC (RADAR)
06:45AM -34.5621 143.2887 263° West 451 519 30,400  Level Aus ATC (RADAR)
06:46AM -34.5709 143.2009 263° West 450 518 30,400  Level Aus ATC (RADAR)
06:46AM -34.5818 143.0876 263° West 449 517 30,400  Level Aus ATC (RADAR)
06:47AM -34.5896 143.0123 263° West 449 517 30,400  Level Aus ATC (RADAR)
06:48AM -34.6095 142.8106 263° West 452 520 30,400  Level Aus ATC (RADAR)
06:49AM -34.6249 142.6592 263° West 451 519 30,500  Climbing Aus ATC (RADAR)
06:50AM -34.6384 142.5204 263° West 450 518 30,500  Level Aus ATC (RADAR)
06:51AM -34.6455 142.4442 263° West 453 521 30,500  Level Aus ATC (RADAR)
06:51AM -34.6563 142.3303 264° West 450 518 30,500  Level Aus ATC (RADAR)
06:53AM -34.6771 142.1017 264° West 452 520 30,500  Level Aus ATC (RADAR)
06:53AM -34.6835 142.0254 264° West 452 520 30,500  Level Aus ATC (RADAR)
06:54AM -34.6960 141.8858 264° West 453 521 30,500  Level Aus ATC (RADAR)
06:55AM -34.7084 141.7467 264° West 451 519 30,500  Level Aus ATC (RADAR)
06:56AM -34.7170 141.6453 264° West 453 521 30,500  Level Aus ATC (RADAR)
06:57AM -34.7300 141.4941 264° West 450 518 30,500  Level Aus ATC (RADAR)
06:58AM -34.7455 141.3171 264° West 448 516 30,500  Level Aus ATC (RADAR)
06:59AM -34.7530 141.2285 264° West 451 519 30,500  Level Aus ATC (RADAR)
07:00AM -34.7646 141.0890 265° West 453 521 30,500  Level Aus ATC (RADAR)
07:00AM -34.7714 141.0000 264° West 454 522 30,500  Level Aus ATC (RADAR)
07:01AM -34.7809 140.8857 264° West 453 521 30,500  Level Aus ATC (RADAR)
07:02AM -34.7916 140.7587 265° West 453 521 30,500  Level Aus ATC (RADAR)
07:03AM -34.8083 140.5422 265° West 455 524 30,500  Level Aus ATC (RADAR)
07:04AM -34.8164 140.4275 264° West 455 524 30,500  Level Aus ATC (RADAR)
07:04AM -34.8236 140.3383 265° West 455 524 30,500  Level Aus ATC (RADAR)
07:05AM -34.8341 140.1978 265° West 457 526 30,500  Level Aus ATC (RADAR)
07:06AM -34.8404 140.1091 265° West 451 519 30,500  Level Aus ATC (RADAR)
07:07AM -34.8506 139.9694 265° West 453 521 30,500  Level Aus ATC (RADAR)
07:09AM -34.8691 139.7033 265° West 451 519 30,500  Level Aus ATC (RADAR)
07:10AM -34.8790 139.5639 265° West 453 521 30,500  Level Aus ATC (RADAR)
07:10AM -34.8878 139.4367 265° West 454 522 30,500  Level Aus ATC (RADAR)
07:11AM -34.8962 139.3095 265° West 454 522 30,500  Level Aus ATC (RADAR)
07:12AM -34.9046 139.1820 265° West 455 524 30,500  Level Aus ATC (RADAR)
07:13AM -34.9187 138.9647 266° West 457 526 30,500  Level Aus ATC (RADAR)
07:14AM -34.9236 138.8880 266° West 457 526 30,500  Level Aus ATC (RADAR)
07:15AM -34.9339 138.7219 266° West 456 525 30,500  Level Aus ATC (RADAR)
07:16AM -34.9433 138.5739 266° West 600 690 30,500  Level Aus ATC (RADAR)
07:17AM -34.9492 138.4775 264° West 456 525 30,500  Level Aus ATC (RADAR)
07:18AM -34.9626 138.3240 264° West 457 526 30,500  Level Aus ATC (RADAR)
07:18AM -34.9733 138.1955 265° West 459 528 30,500  Level Aus ATC (RADAR)
07:19AM -34.9822 138.0800 265° West 459 528 30,500  Level Aus ATC (RADAR)
07:20AM -34.9900 137.9776 265° West 458 527 30,500  Level Aus ATC (RADAR)
07:21AM -35.0008 137.8361 265° West 459 528 30,500  Level Aus ATC (RADAR)
07:21AM -35.0076 137.7460 265° West 460 529 30,500  Level Aus ATC (RADAR)
07:22AM -35.0182 137.6046 265° West 458 527 30,500  Level Aus ATC (RADAR)
07:24AM -35.0363 137.3595 265° West 460 529 30,500  Level Aus ATC (RADAR)
07:25AM -35.0462 137.2173 265° West 462 532 30,500  Level Aus ATC (RADAR)
07:25AM -35.0546 137.1008 265° West 462 532 30,500  Level Aus ATC (RADAR)
07:26AM -35.0620 136.9973 265° West 461 531 30,500  Level Aus ATC (RADAR)
07:27AM -35.0702 136.8805 265° West 462 532 30,500  Level Aus ATC (RADAR)
07:28AM -35.0807 136.7245 265° West 464 534 30,500  Level Aus ATC (RADAR)
07:29AM -35.0936 136.5294 265° West 464 534 30,500  Level Aus ATC (RADAR)
07:30AM -35.1032 136.3990 265° West 465 535 30,500  Level Aus ATC (RADAR)
07:31AM -35.1135 136.2423 266° West 466 536 30,500  Level Aus ATC (RADAR)
07:32AM -35.1185 136.1507 265° West 466 536 30,500  Level Aus ATC (RADAR)
07:32AM -35.1277 136.0200 267° West 467 537 30,500  Level Aus ATC (RADAR)
07:33AM -35.1319 135.9286 265° West 466 536 30,500  Level Aus ATC (RADAR)
07:34AM -35.1462 135.7188 267° West 468 539 30,500  Level Aus ATC (RADAR)
07:35AM -35.1528 135.5745 264° West 468 539 30,500  Level Aus ATC (RADAR)
07:36AM -35.1641 135.4311 268° West 465 535 30,500  Level Aus ATC (RADAR)
07:37AM -35.1705 135.2358 264° West 461 531 30,500  Level Aus ATC (RADAR)
07:39AM -35.1898 135.0036 268° West 460 529 30,500  Level Aus ATC (RADAR)
07:39AM -35.1923 134.9261 268° West 458 527 30,500  Level Aus ATC (RADAR)
07:40AM -35.1967 134.7970 268° West 459 528 30,500  Level Aus ATC (RADAR)
07:41AM -35.1995 134.6809 266° West 459 528 30,500  Level Aus ATC (RADAR)
07:42AM -35.2070 134.5381 265° West 463 533 30,500  Level Aus ATC (RADAR)
07:43AM -35.2159 134.4086 267° West 463 533 30,500  Level Aus ATC (RADAR)
07:43AM -35.2199 134.3049 267° West 461 531 30,500  Level Aus ATC (RADAR)
07:44AM -35.2266 134.1623 267° West 460 529 30,500  Level Aus ATC (RADAR)
07:45AM -35.2341 133.9935 267° West 462 532 30,500  Level Aus ATC (RADAR)
07:46AM -35.2393 133.8772 267° West 460 529 30,500  Level Aus ATC (RADAR)
07:47AM -35.2429 133.7994 268° West 460 529 30,500  Level Aus ATC (RADAR)
07:47AM -35.2466 133.6699 277° West 460 529 30,500 -60 Level Aus ATC (RADAR)
07:51AM -35.2076 133.1944 277° West 30,000 -60 Descending Aus ATC (Calculated)
07:55AM -35.1520 132.5626 278° West  Level FlightAware Approximate
07:56AM -35.1392 132.4229 278° West  Level FlightAware Approximate
07:57AM -35.1263 132.2831 278° West  Level FlightAware Approximate
07:58AM -35.1132 132.1435 278° West  Level FlightAware Approximate
07:59AM -35.1000 132.0038 278° West  Level FlightAware Approximate
08:00AM -35.0840 131.8172 278° West 30,000  Level Aus ATC (Calculated)
08:01AM -35.0664 131.6382 278° West  Level FlightAware Approximate
08:02AM -35.0422 131.3901 279° West 30,000  Level Aus ATC (Calculated)
08:02AM -35.0422 131.3901 279° West 30,000 -60 Level Aus ATC (Calculated)
08:04AM -35.0150 131.1243 279° West  Level FlightAware Approximate
08:05AM -35.0004 130.9845 279° West  Level FlightAware Approximate
08:06AM -34.9857 130.8448 279° West  Level FlightAware Approximate
08:07AM -34.9708 130.7051 279° West  Level FlightAware Approximate
08:08AM -34.9500 130.5122 279° West 30,000  Level Aus ATC (Calculated)
08:09AM -34.9381 130.4026 279° West 30,000 -60 Level Aus ATC (Calculated)
08:10AM -34.9167 130.2096 280° West  Level FlightAware Approximate
08:11AM -34.9011 130.0701 280° West  Level FlightAware Approximate
08:12AM -34.8892 129.9646 280° West 30,000  Level Aus ATC (Calculated)
08:13AM -34.8675 129.7741 280° West  Level FlightAware Approximate
08:14AM -34.8513 129.6348 280° West  Level FlightAware Approximate
08:15AM -34.8351 129.4956 280° West  Level FlightAware Approximate
08:16AM -34.8186 129.3564 280° West  Level FlightAware Approximate
08:17AM -34.8021 129.2172 280° West  Level FlightAware Approximate
08:18AM -34.7853 129.0781 280° West  Level FlightAware Approximate
08:19AM -34.7684 128.9391 280° West  Level FlightAware Approximate
08:20AM -34.7602 128.8717 281° West 30,000  Level Aus ATC (Calculated)
08:21AM -34.7339 128.6587 281° West  Level FlightAware Approximate
08:22AM -34.7165 128.5199 281° West  Level FlightAware Approximate
08:23AM -34.6921 128.3266 281° West 30,000  Level Aus ATC (Calculated)
08:24AM -34.6725 128.1741 281° West  Level FlightAware Approximate
08:25AM -34.6641 128.1088 281° West 30,000  Level Aus ATC (Calculated)
08:25AM -34.6500 128.0000 281° West 30,000 -60 Level Aus ATC (Calculated)
08:27AM -34.6115 127.7599 281° West  Level FlightAware Approximate
08:28AM -34.5889 127.6201 281° West  Level FlightAware Approximate
08:29AM -34.5661 127.4804 282° West  Level FlightAware Approximate
08:30AM -34.5753 127.4352 282° West 34,000  Level Aus ATC (Calculated)
08:31AM -34.5498 127.2472 282° West 34,000 -180 Level Aus ATC (Calculated)
08:33AM -34.5028 126.9707 282° West  Level FlightAware Approximate
08:34AM -34.4980 126.8715 282° West 34,000  Level Aus ATC (Calculated)
08:35AM -34.4713 126.7184 282° West  Level FlightAware Approximate
08:36AM -34.4469 126.5793 282° West  Level FlightAware Approximate
08:37AM -34.4223 126.4402 282° West  Level FlightAware Approximate
08:38AM -34.3976 126.3013 283° West  Level FlightAware Approximate
08:39AM -34.3727 126.1625 283° West  Level FlightAware Approximate
08:40AM -34.3909 126.1214 283° West 34,000  Level Aus ATC (Calculated)
08:41AM -34.3601 125.9550 283° West  Level FlightAware Approximate
08:42AM -34.3344 125.8165 283° West  Level FlightAware Approximate
08:43AM -34.3084 125.6780 283° West  Level FlightAware Approximate
08:44AM -34.2823 125.5396 283° West  Level FlightAware Approximate
08:45AM -34.3076 125.5601 283° West 34,000  Level Aus ATC (Calculated)
08:46AM -34.2666 125.3483 284° West  Level FlightAware Approximate
08:47AM -34.2506 125.1866 284° West 34,000  Level Aus ATC (Calculated)
08:49AM -34.2075 124.9092 284° West  Level FlightAware Approximate
08:50AM -34.1769 124.7706 284° West  Level FlightAware Approximate
08:51AM -34.1461 124.6320 284° West  Level FlightAware Approximate
08:52AM -34.1152 124.4936 284° West  Level FlightAware Approximate
08:53AM -34.0842 124.3553 284° West  Level FlightAware Approximate
08:54AM -34.0530 124.2171 284° West  Level FlightAware Approximate
08:55AM -34.0216 124.0790 284° West  Level FlightAware Approximate
08:56AM -33.9901 123.9410 285° West  Level FlightAware Approximate
08:57AM -33.9584 123.8031 285° West  Level FlightAware Approximate
08:58AM -33.9266 123.6653 285° West  Level FlightAware Approximate
08:59AM -33.9950 123.6055 286° West 36,000  Level Aus ATC (Calculated)
09:01AM -33.9358 123.3655 286° West  Level FlightAware Approximate
09:02AM -33.9018 123.2285 286° West  Level FlightAware Approximate
09:03AM -33.8676 123.0916 286° West  Level FlightAware Approximate
09:04AM -33.8333 122.9548 286° West  Level FlightAware Approximate
09:05AM -33.7988 122.8182 286° West  Level FlightAware Approximate
09:06AM -33.7641 122.6816 286° West  Level FlightAware Approximate
09:07AM -33.8059 122.5151 288° West 36,000  Level Aus ATC (Calculated)
09:08AM -33.7883 122.4163 288° West 36,000 -540 Level Aus ATC (Calculated)
09:09AM -33.7452 122.2605 288° West  Level FlightAware Approximate
09:10AM -33.7527 122.2186 289° West 36,000  Level Aus ATC (Calculated)
09:11AM -33.7031 122.0430 289° West  Level FlightAware Approximate
09:12AM -33.6987 121.9224 289° West 36,000  Level Aus ATC (Calculated)
09:13AM -33.6637 121.7667 290° West  Level FlightAware Approximate
09:14AM -33.6274 121.6310 290° West  Level FlightAware Approximate
09:15AM -33.5966 121.5401 290° West 36,000  Level Aus ATC (Calculated)
09:16AM -33.5571 121.3933 290° West  Level FlightAware Approximate
09:17AM -33.5119 121.2569 290° West 36,000  Level Aus ATC (Calculated)
09:18AM -33.4711 121.1058 290° West  Level FlightAware Approximate
09:19AM -33.4480 121.0449 290° West 36,000  Level Aus ATC (Calculated)
09:20AM -33.4083 120.8984 291° West  Level FlightAware Approximate
09:21AM -33.3715 120.7633 291° West  Level FlightAware Approximate
09:22AM -33.3345 120.6283 291° West  Level FlightAware Approximate
09:23AM -33.2974 120.4934 292° West  Level FlightAware Approximate
09:25AM -32.8924 119.2920 291° West 445 512 27,200  Level Aus ATC (RADAR)
09:26AM -32.8439 119.1418 291° West 442 509 27,200  Level Aus ATC (RADAR)
09:27AM -32.7957 118.9918 291° West 438 504 27,200  Level Aus ATC (RADAR)
09:28AM -32.7444 118.8292 292° West 442 509 27,200  Level Aus ATC (RADAR)
09:29AM -32.6977 118.6911 290° West 444 511 27,200  Level Aus ATC (RADAR)
09:30AM -32.6469 118.5277 291° West 442 509 27,200  Level Aus ATC (RADAR)
09:31AM -32.6017 118.3888 291° West 442 509 27,200  Level Aus ATC (RADAR)
09:32AM -32.5529 118.2387 291° West 442 509 27,200  Level Aus ATC (RADAR)
09:34AM -32.5004 118.0779 291° West 438 504 27,200  Level Aus ATC (RADAR)
09:35AM -32.4516 117.9290 290° West 437 503 27,200  Level Aus ATC (RADAR)
09:36AM -32.4053 117.7787 291° West 439 505 27,200  Level Aus ATC (RADAR)
09:37AM -32.3614 117.6412 286° West 435 501 27,200  Level Aus ATC (RADAR)
09:38AM -32.3251 117.4887 285° West 431 496 27,200  Level Aus ATC (RADAR)
09:39AM -32.2959 117.3639 286° West 370 426 27,200 -720 Level Aus ATC (RADAR)
09:40AM -32.2690 117.2556 286° West 329 379 25,800 -1,620 Descending Aus ATC (RADAR)
09:41AM -32.2394 117.1319 286° West 321 369 23,800 -1,800 Descending Aus ATC (RADAR)
09:42AM -32.2124 117.0195 286° West 315 362 21,900 -1,740 Descending Aus ATC (RADAR)
09:43AM -32.1841 116.9003 279° West 310 357 19,900 -1,740 Descending Aus ATC (RADAR)
09:44AM -32.1704 116.7980 278° West 302 348 18,200 -1,680 Descending Aus ATC (RADAR)
09:45AM -32.1568 116.6883 275° West 297 342 16,400 -1,680 Descending Aus ATC (RADAR)
09:46AM -32.1493 116.5888 264° West 290 334 14,800 -1,440 Descending Aus ATC (RADAR)
09:47AM -32.1580 116.4858 265° West 277 319 13,500 -1,440 Descending Aus ATC (RADAR)
09:48AM -32.1658 116.3845 265° West 275 316 11,800 -1,440 Descending Aus ATC (RADAR)
09:49AM -32.1731 116.2937 263° West 265 305 10,500 -1,320 Descending Aus ATC (RADAR)
09:50AM -32.1818 116.2060 263° West 258 297 9,200 -1,440 Descending Aus ATC (RADAR)
09:52AM -32.1909 116.1119 267° West 257 296 7,500 -1,680 Descending Aus ATC (RADAR)
09:53AM -32.1950 116.0145 285° West 264 304 5,600 -1,680 Descending Aus ATC (RADAR)
09:54AM -32.1768 115.9364 338° Northwest 232 267 4,100 -1,080 Descending Aus ATC (RADAR)
09:55AM -32.1233 115.9112 14° North 215 247 3,400 -900 Descending Aus ATC (RADAR)
09:56AM -32.0637 115.9290 14° North 204 235 2,200 -1,020 Descending Aus ATC (RADAR)
09:57AM -32.0104 115.9444 14° North 173 199 1,200 -840 Descending Aus ATC (RADAR)
09:58AM -31.9696 115.9567 14° North 143 165 400 -780 Descending Aus ATC (RADAR)